Time,TemperatureF,DewpointF,PressureIn,WindDirection,WindDirectionDegrees,WindSpeedMPH,WindSpeedGustMPH,Humidity,HourlyPrecipIn,Conditions,Clouds,dailyrainin,SolarRadiationWatts/m^2,SoftwareType,DateUTC
2013-01-08 00:00:00,10.4,3.5,30.28,East,90,1.0,3.0,73,0.00,,,-99.99,0,WeatherLink 5.7,2013-01-08 07:00:00,
2013-01-08 00:10:00,10.6,3.9,30.29,East,90,1.0,2.0,74,0.00,,,-99.99,0,WeatherLink 5.7,2013-01-08 07:10:00,
2013-01-08 00:15:00,10.6,3.9,30.29,East,90,0.0,2.0,74,0.00,,,-99.99,0,WeatherLink 5.7,2013-01-08 07:15:00,
2013-01-08 00:20:00,10.9,4.2,30.26,East,90,1.0,2.0,74,0.00,,,-99.99,0,WeatherLink 5.7,2013-01-08 07:20:00,
2013-01-08 00:25:00,11.3,4.6,30.26,North,-999,0.0,0.0,74,0.00,,,-99.99,0,WeatherLink 5.7,2013-01-08 07:25:00,
2013-01-08 00:35:00,11.4,4.4,30.25,North,-999,0.0,0.0,73,0.00,,,-99.99,0,WeatherLink 5.7,2013-01-08 07:35:00,
2013-01-08 00:40:00,11.4,4.4,30.25,North,-999,0.0,0.0,73,0.00,,,-99.99,0,WeatherLink 5.7,2013-01-08 07:40:00,
2013-01-08 00:45:00,11.3,4.3,30.25,North,-999,0.0,0.0,73,0.00,,,-99.99,0,WeatherLink 5.7,2013-01-08 07:45:00,
2013-01-08 00:55:00,11.1,4.1,30.26,North,-999,0.0,0.0,73,0.00,,,-99.99,0,WeatherLink 5.7,2013-01-08 07:55:00,
2013-01-08 01:00:00,11.1,4.1,30.26,North,-999,0.0,0.0,73,0.00,,,-99.99,0,WeatherLink 5.7,2013-01-08 08:00:00,
2013-01-08 01:10:00,10.9,3.9,30.26,East,90,0.0,2.0,73,0.00,,,-99.99,0,WeatherLink 5.7,2013-01-08 08:10:00,
2013-01-08 01:15:00,10.6,3.6,30.26,North,-999,0.0,0.0,73,0.00,,,-99.99,0,WeatherLink 5.7,2013-01-08 08:15:00,
2013-01-08 01:20:00,10.4,3.5,30.25,East,90,0.0,2.0,73,0.00,,,-99.99,0,WeatherLink 5.7,2013-01-08 08:20:00,
2013-01-08 01:25:00,10.2,3.3,30.25,East,90,0.0,2.0,73,0.00,,,-99.99,0,WeatherLink 5.7,2013-01-08 08:25:00,
2013-01-08 01:30:00,10.1,3.2,30.25,East,90,0.0,1.0,73,0.00,,,-99.99,0,WeatherLink 5.7,2013-01-08 08:30:00,
2013-01-08 01:35:00,9.9,3.3,30.25,North,-999,0.0,0.0,74,0.00,,,-99.99,0,WeatherLink 5.7,2013-01-08 08:35:00,
2013-01-08 01:45:00,10.1,3.5,30.25,North,-999,0.0,0.0,74,0.00,,,-99.99,0,WeatherLink 5.7,2013-01-08 08:45:00,
2013-01-08 01:50:00,9.9,3.6,30.25,North,-999,0.0,0.0,75,0.00,,,-99.99,0,WeatherLink 5.7,2013-01-08 08:50:00,
2013-01-08 02:00:00,9.7,3.4,30.25,North,-999,0.0,0.0,75,0.00,,,-99.99,0,WeatherLink 5.7,2013-01-08 09:00:00,
2013-01-08 02:10:00,9.6,3.0,30.26,North,-999,0.0,0.0,74,0.00,,,-99.99,0,WeatherLink 5.7,2013-01-08 09:10:00,
2013-01-08 02:20:00,9.0,2.7,30.27,North,-999,0.0,0.0,75,0.00,,,-99.99,0,WeatherLink 5.7,2013-01-08 09:20:00,
2013-01-08 02:25:00,9.0,2.7,30.27,North,-999,0.0,0.0,75,0.00,,,-99.99,0,WeatherLink 5.7,2013-01-08 09:25:00,
2013-01-08 02:35:00,8.9,2.9,30.26,East,90,1.0,2.0,76,0.00,,,-99.99,0,WeatherLink 5.7,2013-01-08 09:35:00,
2013-01-08 02:40:00,8.7,2.7,30.26,East,90,0.0,2.0,76,0.00,,,-99.99,0,WeatherLink 5.7,2013-01-08 09:40:00,
2013-01-08 02:50:00,8.7,2.7,30.27,North,-999,0.0,0.0,76,0.00,,,-99.99,0,WeatherLink 5.7,2013-01-08 09:50:00,
2013-01-08 02:55:00,8.5,2.5,30.27,North,-999,0.0,0.0,76,0.00,,,-99.99,0,WeatherLink 5.7,2013-01-08 09:55:00,
2013-01-08 03:00:00,8.3,2.3,30.27,North,-999,0.0,0.0,76,0.00,,,-99.99,0,WeatherLink 5.7,2013-01-08 10:00:00,
2013-01-08 03:10:00,8.3,2.3,30.26,East,90,3.0,4.0,76,0.00,,,-99.99,0,WeatherLink 5.7,2013-01-08 10:10:00,
2013-01-08 03:15:00,8.3,2.3,30.26,East,90,1.0,4.0,76,0.00,,,-99.99,0,WeatherLink 5.7,2013-01-08 10:15:00,
2013-01-08 03:20:00,8.7,3.0,30.28,East,90,1.0,3.0,77,0.00,,,-99.99,0,WeatherLink 5.7,2013-01-08 10:20:00,
2013-01-08 03:30:00,8.7,2.7,30.28,North,-999,0.0,0.0,76,0.00,,,-99.99,0,WeatherLink 5.7,2013-01-08 10:30:00,
2013-01-08 03:35:00,8.5,2.5,30.28,East,90,1.0,4.0,76,0.00,,,-99.99,0,WeatherLink 5.7,2013-01-08 10:35:00,
2013-01-08 03:40:00,8.1,2.1,30.28,East,90,1.0,2.0,76,0.00,,,-99.99,0,WeatherLink 5.7,2013-01-08 10:40:00,
2013-01-08 03:50:00,8.1,2.4,30.28,East,90,1.0,4.0,77,0.00,,,-99.99,0,WeatherLink 5.7,2013-01-08 10:50:00,
2013-01-08 03:55:00,8.1,2.1,30.28,North,-999,0.0,0.0,76,0.00,,,-99.99,0,WeatherLink 5.7,2013-01-08 10:55:00,
2013-01-08 04:00:00,8.0,2.0,30.28,North,-999,0.0,0.0,76,0.00,,,-99.99,0,WeatherLink 5.7,2013-01-08 11:00:00,
2013-01-08 04:10:00,8.1,2.4,30.28,East,90,1.0,3.0,77,0.00,,,-99.99,0,WeatherLink 5.7,2013-01-08 11:10:00,
2013-01-08 04:15:00,8.1,2.4,30.28,East,90,2.0,4.0,77,0.00,,,-99.99,0,WeatherLink 5.7,2013-01-08 11:15:00,
2013-01-08 04:20:00,8.3,2.6,30.31,East,90,3.0,4.0,77,0.00,,,-99.99,0,WeatherLink 5.7,2013-01-08 11:20:00,
2013-01-08 04:25:00,8.3,2.6,30.31,East,90,1.0,4.0,77,0.00,,,-99.99,0,WeatherLink 5.7,2013-01-08 11:25:00,
2013-01-08 04:35:00,7.8,1.8,30.32,North,-999,0.0,0.0,76,0.00,,,-99.99,0,WeatherLink 5.7,2013-01-08 11:35:00,
2013-01-08 04:40:00,7.6,1.6,30.32,East,90,0.0,2.0,76,0.00,,,-99.99,0,WeatherLink 5.7,2013-01-08 11:40:00,
2013-01-08 04:50:00,7.6,1.9,30.32,East,90,0.0,2.0,77,0.00,,,-99.99,0,WeatherLink 5.7,2013-01-08 11:50:00,
2013-01-08 05:00:00,7.3,1.6,30.32,North,-999,0.0,0.0,77,0.00,,,-99.99,0,WeatherLink 5.7,2013-01-08 12:00:00,
2013-01-08 05:10:00,6.7,1.0,30.31,North,-999,0.0,0.0,77,0.00,,,-99.99,0,WeatherLink 5.7,2013-01-08 12:10:00,
2013-01-08 05:15:00,6.9,1.2,30.31,North,-999,0.0,0.0,77,0.00,,,-99.99,0,WeatherLink 5.7,2013-01-08 12:15:00,
2013-01-08 05:20:00,6.9,1.2,30.37,North,-999,0.0,0.0,77,0.00,,,-99.99,0,WeatherLink 5.7,2013-01-08 12:20:00,
2013-01-08 05:25:00,6.9,1.2,30.37,East,90,1.0,3.0,77,0.00,,,-99.99,0,WeatherLink 5.7,2013-01-08 12:25:00,
2013-01-08 05:30:00,6.9,1.2,30.37,East,90,2.0,4.0,77,0.00,,,-99.99,0,WeatherLink 5.7,2013-01-08 12:30:00,
2013-01-08 05:40:00,7.1,1.4,30.37,East,90,1.0,3.0,77,0.00,,,-99.99,0,WeatherLink 5.7,2013-01-08 12:40:00,
2013-01-08 05:45:00,7.1,1.4,30.37,East,90,1.0,3.0,77,0.00,,,-99.99,0,WeatherLink 5.7,2013-01-08 12:45:00,
2013-01-08 05:50:00,7.3,1.6,30.38,East,90,2.0,3.0,77,0.00,,,-99.99,0,WeatherLink 5.7,2013-01-08 12:50:00,
2013-01-08 06:00:00,7.1,1.4,30.38,East,90,0.0,1.0,77,0.00,,,-99.99,0,WeatherLink 5.7,2013-01-08 13:00:00,
2013-01-08 06:10:00,6.7,1.0,30.38,East,90,1.0,3.0,77,0.00,,,-99.99,0,WeatherLink 5.7,2013-01-08 13:10:00,
2013-01-08 06:15:00,6.7,1.0,30.38,East,90,1.0,2.0,77,0.00,,,-99.99,0,WeatherLink 5.7,2013-01-08 13:15:00,
2013-01-08 06:20:00,6.7,1.0,30.42,North,-999,0.0,0.0,77,0.00,,,-99.99,0,WeatherLink 5.7,2013-01-08 13:20:00,
2013-01-08 06:25:00,6.9,1.2,30.42,ESE,112,1.0,3.0,77,0.00,,,-99.99,0,WeatherLink 5.7,2013-01-08 13:25:00,
2013-01-08 06:35:00,7.1,1.4,30.42,ESE,112,2.0,3.0,77,0.00,,,-99.99,0,WeatherLink 5.7,2013-01-08 13:35:00,
2013-01-08 06:40:00,7.1,1.4,30.42,ESE,112,0.0,2.0,77,0.00,,,-99.99,0,WeatherLink 5.7,2013-01-08 13:40:00,
2013-01-08 06:50:00,7.3,1.6,30.41,East,90,1.0,4.0,77,0.00,,,-99.99,0,WeatherLink 5.7,2013-01-08 13:50:00,
2013-01-08 07:00:00,7.6,1.6,30.41,East,90,0.0,2.0,76,0.00,,,-99.99,0,WeatherLink 5.7,2013-01-08 14:00:00,
2013-01-08 07:10:00,7.8,1.8,30.40,East,90,0.0,2.0,76,0.00,,,-99.99,0,WeatherLink 5.7,2013-01-08 14:10:00,
2013-01-08 07:20:00,7.8,1.8,30.44,North,-999,0.0,0.0,76,0.00,,,-99.99,0,WeatherLink 5.7,2013-01-08 14:20:00,
2013-01-08 07:25:00,7.8,1.8,30.44,East,90,0.0,1.0,76,0.00,,,-99.99,0,WeatherLink 5.7,2013-01-08 14:25:00,
2013-01-08 07:35:00,8.0,2.0,30.44,ESE,112,1.0,3.0,76,0.00,,,-99.99,0,WeatherLink 5.7,2013-01-08 14:35:00,
2013-01-08 07:40:00,8.0,2.0,30.44,ESE,112,2.0,4.0,76,0.00,,,-99.99,2,WeatherLink 5.7,2013-01-08 14:40:00,
2013-01-08 07:45:00,8.0,2.0,30.44,East,90,0.0,3.0,76,0.00,,,-99.99,5,WeatherLink 5.7,2013-01-08 14:45:00,
2013-01-08 07:55:00,8.1,2.1,30.46,North,-999,0.0,0.0,76,0.00,,,-99.99,9,WeatherLink 5.7,2013-01-08 14:55:00,
2013-01-08 08:00:00,8.5,2.5,30.46,North,-999,0.0,0.0,76,0.00,,,-99.99,12,WeatherLink 5.7,2013-01-08 15:00:00,
2013-01-08 08:10:00,8.7,2.4,30.46,North,-999,0.0,0.0,75,0.00,,,-99.99,18,WeatherLink 5.7,2013-01-08 15:10:00,
2013-01-08 08:15:00,8.7,2.4,30.46,North,-999,0.0,0.0,75,0.00,,,-99.99,17,WeatherLink 5.7,2013-01-08 15:15:00,
2013-01-08 08:20:00,8.7,2.4,30.47,North,-999,0.0,0.0,75,0.00,,,-99.99,22,WeatherLink 5.7,2013-01-08 15:20:00,
2013-01-08 08:30:00,8.9,2.6,30.47,North,-999,0.0,0.0,75,0.00,,,-99.99,30,WeatherLink 5.7,2013-01-08 15:30:00,
2013-01-08 08:35:00,9.0,2.7,30.49,East,90,0.0,1.0,75,0.00,,,-99.99,32,WeatherLink 5.7,2013-01-08 15:35:00,
2013-01-08 08:45:00,9.9,3.3,30.49,East,90,0.0,2.0,74,0.00,,,-99.99,143,WeatherLink 5.7,2013-01-08 15:45:00,
2013-01-08 08:55:00,10.8,3.5,30.49,East,90,0.0,2.0,72,0.00,,,-99.99,161,WeatherLink 5.7,2013-01-08 15:55:00,
2013-01-08 09:00:00,11.4,3.5,30.49,North,-999,0.0,0.0,70,0.00,,,-99.99,183,WeatherLink 5.7,2013-01-08 16:00:00,
2013-01-08 09:10:00,12.1,3.6,30.46,East,90,1.0,3.0,68,0.00,,,-99.99,241,WeatherLink 5.7,2013-01-08 16:10:00,
2013-01-08 09:15:00,12.1,3.6,30.46,ESE,112,1.0,3.0,68,0.00,,,-99.99,237,WeatherLink 5.7,2013-01-08 16:15:00,
2013-01-08 09:25:00,13.3,4.4,30.49,East,90,0.0,1.0,67,0.00,,,-99.99,288,WeatherLink 5.7,2013-01-08 16:25:00,
2013-01-08 09:30:00,13.5,4.2,30.49,East,90,1.0,2.0,66,0.00,,,-99.99,249,WeatherLink 5.7,2013-01-08 16:30:00,
2013-01-08 09:35:00,14.3,4.7,30.48,East,90,1.0,3.0,65,0.00,,,-99.99,261,WeatherLink 5.7,2013-01-08 16:35:00,
2013-01-08 09:45:00,15.8,5.4,30.48,South,180,0.0,1.0,63,0.00,,,-99.99,339,WeatherLink 5.7,2013-01-08 16:45:00,
2013-01-08 09:55:00,15.6,4.9,30.46,East,90,1.0,3.0,62,0.00,,,-99.99,271,WeatherLink 5.7,2013-01-08 16:55:00,
2013-01-08 10:00:00,16.1,5.4,30.46,SE,135,0.0,3.0,62,0.00,,,-99.99,259,WeatherLink 5.7,2013-01-08 17:00:00,
2013-01-08 10:10:00,17.7,5.4,30.46,SE,135,0.0,1.0,58,0.00,,,-99.99,328,WeatherLink 5.7,2013-01-08 17:10:00,
2013-01-08 10:15:00,17.8,5.1,30.46,SE,135,0.0,2.0,57,0.00,,,-99.99,364,WeatherLink 5.7,2013-01-08 17:15:00,
2013-01-08 10:20:00,18.1,5.4,30.48,SE,135,0.0,1.0,57,0.00,,,-99.99,356,WeatherLink 5.7,2013-01-08 17:20:00,
2013-01-08 10:25:00,18.6,5.5,30.48,North,-999,0.0,0.0,56,0.00,,,-99.99,377,WeatherLink 5.7,2013-01-08 17:25:00,
2013-01-08 10:35:00,21.1,6.2,30.46,SE,135,0.0,1.0,52,0.00,,,-99.99,408,WeatherLink 5.7,2013-01-08 17:35:00,
2013-01-08 10:45:00,20.8,5.9,30.46,SSW,202,0.0,1.0,52,0.00,,,-99.99,255,WeatherLink 5.7,2013-01-08 17:45:00,
2013-01-08 10:55:00,21.3,6.0,30.46,SSW,202,0.0,1.0,51,0.00,,,-99.99,285,WeatherLink 5.7,2013-01-08 17:55:00,
2013-01-08 11:00:00,21.9,6.5,30.46,North,-999,0.0,0.0,51,0.00,,,-99.99,294,WeatherLink 5.7,2013-01-08 18:00:00,
2013-01-08 11:10:00,23.2,6.8,30.44,West,270,0.0,3.0,49,0.00,,,-99.99,319,WeatherLink 5.7,2013-01-08 18:10:00,
2013-01-08 11:20:00,24.2,7.8,30.42,NNW,337,1.0,3.0,49,0.00,,,-99.99,269,WeatherLink 5.7,2013-01-08 18:20:00,
2013-01-08 11:25:00,24.2,7.8,30.42,NNW,337,1.0,3.0,49,0.00,,,-99.99,295,WeatherLink 5.7,2013-01-08 18:25:00,
2013-01-08 11:35:00,26.0,9.0,30.41,North,-999,0.0,0.0,48,0.00,,,-99.99,266,WeatherLink 5.7,2013-01-08 18:35:00,
2013-01-08 11:45:00,26.1,8.6,30.41,NW,315,0.0,2.0,47,0.00,,,-99.99,226,WeatherLink 5.7,2013-01-08 18:45:00,
2013-01-08 11:55:00,26.9,8.4,30.40,NW,315,0.0,1.0,45,0.00,,,-99.99,239,WeatherLink 5.7,2013-01-08 18:55:00,
2013-01-08 12:00:00,27.0,8.0,30.40,NW,315,0.0,3.0,44,0.00,,,-99.99,225,WeatherLink 5.7,2013-01-08 19:00:00,
2013-01-08 12:10:00,27.0,7.4,30.39,ESE,112,1.0,3.0,43,0.00,,,-99.99,213,WeatherLink 5.7,2013-01-08 19:10:00,
2013-01-08 12:15:00,27.3,7.7,30.39,SE,135,1.0,3.0,43,0.00,,,-99.99,316,WeatherLink 5.7,2013-01-08 19:15:00,
2013-01-08 12:20:00,27.6,8.0,30.37,SE,135,1.0,4.0,43,0.00,,,-99.99,336,WeatherLink 5.7,2013-01-08 19:20:00,
2013-01-08 12:30:00,28.5,8.3,30.37,SE,135,0.0,1.0,42,0.00,,,-99.99,282,WeatherLink 5.7,2013-01-08 19:30:00,
2013-01-08 12:35:00,29.0,7.7,30.35,SE,135,0.0,2.0,40,0.00,,,-99.99,265,WeatherLink 5.7,2013-01-08 19:35:00,
2013-01-08 12:40:00,29.2,7.8,30.35,SE,135,0.0,1.0,40,0.00,,,-99.99,263,WeatherLink 5.7,2013-01-08 19:40:00,
2013-01-08 12:50:00,29.8,7.8,30.34,SE,135,0.0,1.0,39,0.00,,,-99.99,229,WeatherLink 5.7,2013-01-08 19:50:00,
2013-01-08 12:55:00,30.4,7.8,30.34,SE,135,0.0,1.0,38,0.00,,,-99.99,275,WeatherLink 5.7,2013-01-08 19:55:00,
2013-01-08 13:00:00,31.3,8.6,30.34,SE,135,0.0,2.0,38,0.00,,,-99.99,399,WeatherLink 5.7,2013-01-08 20:00:00,
2013-01-08 13:10:00,33.4,8.6,30.31,SE,135,0.0,1.0,35,0.00,,,-99.99,317,WeatherLink 5.7,2013-01-08 20:10:00,
2013-01-08 13:15:00,33.5,8.7,30.31,SE,135,0.0,1.0,35,0.00,,,-99.99,418,WeatherLink 5.7,2013-01-08 20:15:00,
2013-01-08 13:20:00,34.0,10.4,30.31,SE,135,0.0,2.0,37,0.00,,,-99.99,505,WeatherLink 5.7,2013-01-08 20:20:00,
2013-01-08 13:25:00,34.0,9.8,30.31,WSW,247,0.0,2.0,36,0.00,,,-99.99,518,WeatherLink 5.7,2013-01-08 20:25:00,
2013-01-08 13:35:00,34.6,10.3,30.31,West,270,0.0,2.0,36,0.00,,,-99.99,528,WeatherLink 5.7,2013-01-08 20:35:00,
2013-01-08 13:40:00,34.7,9.8,30.31,West,270,0.0,3.0,35,0.00,,,-99.99,525,WeatherLink 5.7,2013-01-08 20:40:00,
2013-01-08 13:50:00,35.3,10.3,30.30,NW,315,1.0,4.0,35,0.00,,,-99.99,462,WeatherLink 5.7,2013-01-08 20:50:00,
2013-01-08 13:55:00,35.3,9.7,30.30,NW,315,0.0,3.0,34,0.00,,,-99.99,470,WeatherLink 5.7,2013-01-08 20:55:00,
2013-01-08 14:00:00,36.0,10.3,30.30,NW,315,0.0,1.0,34,0.00,,,-99.99,447,WeatherLink 5.7,2013-01-08 21:00:00,
2013-01-08 14:10:00,35.9,10.9,30.30,NW,315,0.0,1.0,35,0.00,,,-99.99,388,WeatherLink 5.7,2013-01-08 21:10:00,
2013-01-08 14:15:00,36.3,12.5,30.30,NW,315,0.0,1.0,37,0.00,,,-99.99,395,WeatherLink 5.7,2013-01-08 21:15:00,
2013-01-08 14:20:00,36.5,11.4,30.31,NW,315,0.0,3.0,35,0.00,,,-99.99,400,WeatherLink 5.7,2013-01-08 21:20:00,
2013-01-08 14:25:00,36.6,10.8,30.31,NW,315,0.0,1.0,34,0.00,,,-99.99,388,WeatherLink 5.7,2013-01-08 21:25:00,
2013-01-08 14:30:00,36.6,12.7,30.31,NW,315,0.0,1.0,37,0.00,,,-99.99,378,WeatherLink 5.7,2013-01-08 21:30:00,
2013-01-08 14:40:00,36.0,11.0,30.32,NNW,337,1.0,4.0,35,0.00,,,-99.99,378,WeatherLink 5.7,2013-01-08 21:40:00,
2013-01-08 14:50:00,36.3,12.5,30.32,NW,315,1.0,3.0,37,0.00,,,-99.99,333,WeatherLink 5.7,2013-01-08 21:50:00,
2013-01-08 14:55:00,36.3,12.5,30.32,NW,315,0.0,1.0,37,0.00,,,-99.99,330,WeatherLink 5.7,2013-01-08 21:55:00,
2013-01-08 15:00:00,36.0,11.6,30.32,NW,315,1.0,4.0,36,0.00,,,-99.99,331,WeatherLink 5.7,2013-01-08 22:00:00,
2013-01-08 15:10:00,35.7,12.5,30.33,NW,315,1.0,5.0,38,0.00,,,-99.99,283,WeatherLink 5.7,2013-01-08 22:10:00,
2013-01-08 15:20:00,35.7,12.5,30.33,NW,315,2.0,5.0,38,0.00,,,-99.99,270,WeatherLink 5.7,2013-01-08 22:20:00,
2013-01-08 15:25:00,35.9,13.9,30.33,NW,315,1.0,4.0,40,0.00,,,-99.99,277,WeatherLink 5.7,2013-01-08 22:25:00,
2013-01-08 15:35:00,35.9,14.5,30.33,NW,315,1.0,5.0,41,0.00,,,-99.99,253,WeatherLink 5.7,2013-01-08 22:35:00,
2013-01-08 15:40:00,35.7,14.3,30.33,NW,315,1.0,4.0,41,0.00,,,-99.99,243,WeatherLink 5.7,2013-01-08 22:40:00,
2013-01-08 15:45:00,35.3,13.9,30.33,NNW,337,3.0,6.0,41,0.00,,,-99.99,236,WeatherLink 5.7,2013-01-08 22:45:00,
2013-01-08 15:55:00,35.2,14.4,30.35,NW,315,0.0,2.0,42,0.00,,,-99.99,150,WeatherLink 5.7,2013-01-08 22:55:00,
2013-01-08 16:00:00,35.2,14.9,30.35,North,-999,0.0,0.0,43,0.00,,,-99.99,67,WeatherLink 5.7,2013-01-08 23:00:00,
2013-01-08 16:10:00,34.4,14.2,30.36,NW,315,0.0,2.0,43,0.00,,,-99.99,40,WeatherLink 5.7,2013-01-08 23:10:00,
2013-01-08 16:20:00,33.7,14.6,30.38,NW,315,0.0,2.0,45,0.00,,,-99.99,30,WeatherLink 5.7,2013-01-08 23:20:00,
2013-01-08 16:30:00,32.9,15.3,30.38,NW,315,0.0,1.0,48,0.00,,,-99.99,26,WeatherLink 5.7,2013-01-08 23:30:00,
2013-01-08 16:35:00,32.4,15.8,30.38,North,-999,0.0,0.0,50,0.00,,,-99.99,25,WeatherLink 5.7,2013-01-08 23:35:00,
2013-01-08 16:40:00,31.9,15.3,30.38,North,-999,0.0,0.0,50,0.00,,,-99.99,22,WeatherLink 5.7,2013-01-08 23:40:00,
2013-01-08 16:45:00,31.3,15.7,30.38,North,-999,0.0,0.0,52,0.00,,,-99.99,19,WeatherLink 5.7,2013-01-08 23:45:00,
2013-01-08 16:55:00,30.4,15.3,30.40,North,-999,0.0,0.0,53,0.00,,,-99.99,12,WeatherLink 5.7,2013-01-08 23:55:00,
2013-01-08 17:00:00,30.0,15.3,30.40,North,-999,0.0,0.0,54,0.00,,,-99.99,9,WeatherLink 5.7,2013-01-09 00:00:00,
2013-01-08 17:10:00,29.4,14.8,30.42,North,-999,0.0,0.0,54,0.00,,,-99.99,0,WeatherLink 5.7,2013-01-09 00:10:00,
2013-01-08 17:15:00,29.1,14.5,30.42,North,-999,0.0,0.0,54,0.00,,,-99.99,0,WeatherLink 5.7,2013-01-09 00:15:00,
2013-01-08 17:25:00,28.4,14.3,30.44,North,-999,0.0,0.0,55,0.00,,,-99.99,0,WeatherLink 5.7,2013-01-09 00:25:00,
2013-01-08 17:35:00,27.9,14.6,30.46,North,-999,0.0,0.0,57,0.00,,,-99.99,0,WeatherLink 5.7,2013-01-09 00:35:00,
2013-01-08 17:40:00,27.6,14.3,30.46,North,-999,0.0,0.0,57,0.00,,,-99.99,0,WeatherLink 5.7,2013-01-09 00:40:00,
2013-01-08 17:45:00,27.3,14.5,30.46,North,-999,0.0,0.0,58,0.00,,,-99.99,0,WeatherLink 5.7,2013-01-09 00:45:00,
2013-01-08 17:55:00,27.0,14.6,30.46,NW,315,0.0,1.0,59,0.00,,,-99.99,0,WeatherLink 5.7,2013-01-09 00:55:00,
2013-01-08 18:00:00,26.9,14.5,30.46,North,-999,0.0,0.0,59,0.00,,,-99.99,0,WeatherLink 5.7,2013-01-09 01:00:00,
2013-01-08 18:10:00,26.3,13.9,30.47,NW,315,0.0,2.0,59,0.00,,,-99.99,0,WeatherLink 5.7,2013-01-09 01:10:00,
2013-01-08 18:20:00,26.0,13.2,30.48,NW,315,0.0,2.0,58,0.00,,,-99.99,0,WeatherLink 5.7,2013-01-09 01:20:00,
2013-01-08 18:25:00,25.8,12.6,30.48,NE,45,1.0,2.0,57,0.00,,,-99.99,0,WeatherLink 5.7,2013-01-09 01:25:00,
2013-01-08 18:30:00,25.7,12.6,30.48,North,-999,0.0,0.0,57,0.00,,,-99.99,0,WeatherLink 5.7,2013-01-09 01:30:00,
2013-01-08 18:35:00,25.5,12.8,30.49,NE,45,0.0,2.0,58,0.00,,,-99.99,0,WeatherLink 5.7,2013-01-09 01:35:00,
2013-01-08 18:45:00,25.4,13.1,30.49,NE,45,0.0,2.0,59,0.00,,,-99.99,0,WeatherLink 5.7,2013-01-09 01:45:00,
2013-01-08 18:50:00,25.1,12.8,30.51,NE,45,0.0,2.0,59,0.00,,,-99.99,0,WeatherLink 5.7,2013-01-09 01:50:00,
2013-01-08 19:00:00,25.1,13.2,30.51,NE,45,0.0,1.0,60,0.00,,,-99.99,0,WeatherLink 5.7,2013-01-09 02:00:00,
2013-01-08 19:10:00,24.7,12.8,30.52,North,-999,0.0,0.0,60,0.00,,,-99.99,0,WeatherLink 5.7,2013-01-09 02:10:00,
2013-01-08 19:15:00,25.0,13.4,30.52,ENE,67,1.0,3.0,61,0.00,,,-99.99,0,WeatherLink 5.7,2013-01-09 02:15:00,
2013-01-08 19:25:00,24.4,12.9,30.51,North,-999,0.0,0.0,61,0.00,,,-99.99,0,WeatherLink 5.7,2013-01-09 02:25:00,
2013-01-08 19:30:00,23.8,12.7,30.51,North,-999,0.0,0.0,62,0.00,,,-99.99,0,WeatherLink 5.7,2013-01-09 02:30:00,
2013-01-08 19:35:00,23.3,12.6,30.54,North,-999,0.0,0.0,63,0.00,,,-99.99,0,WeatherLink 5.7,2013-01-09 02:35:00,
2013-01-08 19:45:00,22.6,11.9,30.54,ESE,112,2.0,4.0,63,0.00,,,-99.99,0,WeatherLink 5.7,2013-01-09 02:45:00,
2013-01-08 19:50:00,21.8,11.1,30.56,ESE,112,1.0,3.0,63,0.00,,,-99.99,0,WeatherLink 5.7,2013-01-09 02:50:00,
2013-01-08 19:55:00,21.8,11.5,30.56,East,90,3.0,4.0,64,0.00,,,-99.99,0,WeatherLink 5.7,2013-01-09 02:55:00,
2013-01-08 20:00:00,21.6,11.6,30.56,East,90,1.0,3.0,65,0.00,,,-99.99,0,WeatherLink 5.7,2013-01-09 03:00:00,
2013-01-08 20:10:00,21.3,11.7,30.58,East,90,1.0,3.0,66,0.00,,,-99.99,0,WeatherLink 5.7,2013-01-09 03:10:00,
2013-01-08 20:15:00,21.1,11.8,30.58,East,90,1.0,3.0,67,0.00,,,-99.99,0,WeatherLink 5.7,2013-01-09 03:15:00,
2013-01-08 20:20:00,20.3,11.1,30.57,North,-999,0.0,0.0,67,0.00,,,-99.99,0,WeatherLink 5.7,2013-01-09 03:20:00,
2013-01-08 20:25:00,20.2,11.3,30.57,East,90,1.0,4.0,68,0.00,,,-99.99,0,WeatherLink 5.7,2013-01-09 03:25:00,
2013-01-08 20:35:00,21.3,12.0,30.58,ESE,112,1.0,3.0,67,0.00,,,-99.99,0,WeatherLink 5.7,2013-01-09 03:35:00,
2013-01-08 20:40:00,21.3,11.7,30.58,SSE,157,0.0,2.0,66,0.00,,,-99.99,0,WeatherLink 5.7,2013-01-09 03:40:00,
2013-01-08 20:50:00,20.8,10.9,30.59,ESE,112,2.0,5.0,65,0.00,,,-99.99,0,WeatherLink 5.7,2013-01-09 03:50:00,
2013-01-08 20:55:00,20.2,10.6,30.59,East,90,2.0,4.0,66,0.00,,,-99.99,0,WeatherLink 5.7,2013-01-09 03:55:00,
2013-01-08 21:00:00,20.3,11.1,30.59,East,90,2.0,4.0,67,0.00,,,-99.99,0,WeatherLink 5.7,2013-01-09 04:00:00,
2013-01-08 21:10:00,19.7,10.5,30.60,East,90,2.0,3.0,67,0.00,,,-99.99,0,WeatherLink 5.7,2013-01-09 04:10:00,
2013-01-08 21:15:00,19.4,10.2,30.60,ESE,112,2.0,4.0,67,0.00,,,-99.99,0,WeatherLink 5.7,2013-01-09 04:15:00,
2013-01-08 21:20:00,19.4,10.2,30.58,SE,135,1.0,3.0,67,0.00,,,-99.99,0,WeatherLink 5.7,2013-01-09 04:20:00,
2013-01-08 21:25:00,19.1,10.3,30.58,East,90,1.0,3.0,68,0.00,,,-99.99,0,WeatherLink 5.7,2013-01-09 04:25:00,
2013-01-08 21:35:00,18.6,10.1,30.59,East,90,3.0,4.0,69,0.00,,,-99.99,0,WeatherLink 5.7,2013-01-09 04:35:00,
2013-01-08 21:40:00,18.8,10.3,30.59,East,90,3.0,5.0,69,0.00,,,-99.99,0,WeatherLink 5.7,2013-01-09 04:40:00,
2013-01-08 21:50:00,18.5,10.0,30.60,SE,135,2.0,4.0,69,0.00,,,-99.99,0,WeatherLink 5.7,2013-01-09 04:50:00,
2013-01-08 21:55:00,18.0,9.5,30.60,East,90,2.0,3.0,69,0.00,,,-99.99,0,WeatherLink 5.7,2013-01-09 04:55:00,
2013-01-08 22:00:00,17.8,9.7,30.60,East,90,2.0,3.0,70,0.00,,,-99.99,0,WeatherLink 5.7,2013-01-09 05:00:00,
2013-01-08 22:10:00,17.2,9.1,30.61,East,90,2.0,3.0,70,0.00,,,-99.99,0,WeatherLink 5.7,2013-01-09 05:10:00,
2013-01-08 22:15:00,16.7,8.6,30.61,East,90,0.0,2.0,70,0.00,,,-99.99,0,WeatherLink 5.7,2013-01-09 05:15:00,
2013-01-08 22:25:00,16.2,8.1,30.59,East,90,2.0,4.0,70,0.00,,,-99.99,0,WeatherLink 5.7,2013-01-09 05:25:00,
2013-01-08 22:30:00,16.1,8.3,30.59,East,90,3.0,4.0,71,0.00,,,-99.99,0,WeatherLink 5.7,2013-01-09 05:30:00,
2013-01-08 22:40:00,15.6,8.2,30.61,East,90,2.0,3.0,72,0.00,,,-99.99,0,WeatherLink 5.7,2013-01-09 05:40:00,
2013-01-08 22:45:00,15.3,7.9,30.61,East,90,2.0,3.0,72,0.00,,,-99.99,0,WeatherLink 5.7,2013-01-09 05:45:00,
2013-01-08 22:55:00,14.9,7.8,30.62,East,90,2.0,4.0,73,0.00,,,-99.99,0,WeatherLink 5.7,2013-01-09 05:55:00,
2013-01-08 23:00:00,15.1,8.3,30.62,East,90,2.0,5.0,74,0.00,,,-99.99,0,WeatherLink 5.7,2013-01-09 06:00:00,
2013-01-08 23:10:00,15.1,8.3,30.62,East,90,1.0,3.0,74,0.00,,,-99.99,0,WeatherLink 5.7,2013-01-09 06:10:00,
2013-01-08 23:15:00,15.1,8.3,30.62,East,90,1.0,3.0,74,0.00,,,-99.99,0,WeatherLink 5.7,2013-01-09 06:15:00,
2013-01-08 23:25:00,14.6,7.8,30.61,ESE,112,2.0,3.0,74,0.00,,,-99.99,0,WeatherLink 5.7,2013-01-09 06:25:00,
2013-01-08 23:30:00,14.5,7.7,30.61,ESE,112,1.0,3.0,74,0.00,,,-99.99,0,WeatherLink 5.7,2013-01-09 06:30:00,
2013-01-08 23:40:00,14.0,7.2,30.63,ESE,112,3.0,4.0,74,0.00,,,-99.99,0,WeatherLink 5.7,2013-01-09 06:40:00,
2013-01-08 23:45:00,13.8,7.0,30.63,ESE,112,3.0,4.0,74,0.00,,,-99.99,0,WeatherLink 5.7,2013-01-09 06:45:00,
2013-01-08 23:55:00,13.5,7.0,30.62,ESE,112,3.0,4.0,75,0.00,,,-99.99,0,WeatherLink 5.7,2013-01-09 06:55:00,